createdAt,value
2019-04-20T00:04:24.749Z,5.83
2019-04-20T00:06:51.632Z,4.63
2019-04-20T00:09:24.093Z,5.00
2019-04-20T00:11:58.969Z,5.50
2019-04-20T00:14:20.591Z,4.57
2019-04-20T00:16:44.327Z,4.57
2019-04-20T00:19:16.804Z,5.07
2019-04-20T00:21:52.806Z,5.00
2019-04-20T00:24:31.979Z,4.00
2019-04-20T00:27:15.986Z,4.97
2019-04-20T00:29:41.201Z,4.07
2019-04-20T00:32:03.071Z,7.33
2019-04-20T00:34:28.279Z,4.20
2019-04-20T00:36:50.255Z,4.97
2019-04-20T00:39:18.857Z,5.07
2019-04-20T00:41:51.425Z,4.93
2019-04-20T00:44:20.707Z,4.07
2019-04-20T00:46:55.620Z,5.60
2019-04-20T00:49:27.929Z,6.03
2019-04-20T00:52:10.729Z,4.37
2019-04-20T00:54:11.499Z,4.87
2019-04-20T00:56:39.726Z,4.77
2019-04-20T00:59:20.097Z,7.10
2019-04-20T01:01:52.360Z,5.57
2019-04-20T01:04:27.192Z,4.37
2019-04-20T01:06:53.572Z,3.93
2019-04-20T01:09:31.152Z,4.50
2019-04-20T01:11:58.656Z,5.23
2019-04-20T01:14:30.920Z,5.93
2019-04-20T01:17:00.470Z,4.33
2019-04-20T01:19:23.688Z,5.97
2019-04-20T01:21:59.206Z,4.70
2019-04-20T01:24:27.520Z,4.63
2019-04-20T01:26:54.683Z,6.23
2019-04-20T01:29:29.457Z,4.60
2019-04-20T01:32:00.904Z,5.57
2019-04-20T01:34:34.595Z,6.50
2019-04-20T01:37:01.892Z,6.33
2019-04-20T01:39:22.109Z,4.37
2019-04-20T01:41:41.390Z,5.43
2019-04-20T01:44:09.160Z,5.13
2019-04-20T01:46:39.203Z,6.67
2019-04-20T01:49:11.461Z,6.80
2019-04-20T01:51:47.045Z,9.57
2019-04-20T01:54:21.373Z,9.17
2019-04-20T01:56:47.640Z,11.50
2019-04-20T01:59:40.287Z,15.17
2019-04-20T02:02:19.369Z,17.67
2019-04-20T02:05:11.478Z,14.90
2019-04-20T02:07:37.348Z,22.03
2019-04-20T02:10:03.637Z,26.73
2019-04-20T02:12:32.683Z,29.13
2019-04-20T02:15:01.093Z,24.70
2019-04-20T02:17:36.720Z,31.63
2019-04-20T02:20:17.102Z,25.47
2019-04-20T02:22:42.182Z,27.10
2019-04-20T02:24:53.234Z,22.97
2019-04-20T02:27:29.965Z,20.30
2019-04-20T02:30:14.294Z,18.43
2019-04-20T02:32:56.050Z,15.17
2019-04-20T02:35:45.998Z,14.00
2019-04-20T02:38:53.645Z,12.40
2019-04-20T02:40:54.099Z,13.40
2019-04-20T02:43:15.296Z,12.63
2019-04-20T02:45:55.084Z,15.97
2019-04-20T02:48:07.745Z,14.43
2019-04-20T02:50:44.238Z,12.50
2019-04-20T02:53:08.268Z,10.87
2019-04-20T02:55:43.563Z,9.47
2019-04-20T03:01:09.642Z,12.33
2019-04-20T03:03:25.166Z,9.40
2019-04-20T03:06:17.104Z,11.37
2019-04-20T03:08:56.576Z,10.97
2019-04-20T03:11:29.382Z,8.60
2019-04-20T03:13:51.926Z,7.30
2019-04-20T03:16:16.324Z,7.67
2019-04-20T03:18:44.649Z,9.93
2019-04-20T03:21:25.816Z,8.00
2019-04-20T03:23:50.080Z,7.53
2019-04-20T03:29:15.873Z,8.93
2019-04-20T03:32:40.212Z,7.07
2019-04-20T03:37:15.219Z,9.07
2019-04-20T03:39:38.840Z,6.67
2019-04-20T03:41:52.013Z,8.90
2019-04-20T03:44:20.965Z,7.77
2019-04-20T03:46:52.215Z,7.87
2019-04-20T03:49:37.973Z,7.57
2019-04-20T03:52:19.267Z,9.17
2019-04-20T03:55:10.260Z,7.93
2019-04-20T03:58:03.478Z,13.00
2019-04-20T04:01:07.480Z,11.50
2019-04-20T04:04:02.624Z,8.67
2019-04-20T04:06:17.580Z,10.40
2019-04-20T04:08:48.626Z,11.33
2019-04-20T04:11:21.826Z,10.03
2019-04-20T04:13:35.493Z,11.37
2019-04-20T04:16:08.826Z,8.63
2019-04-20T04:18:38.650Z,13.03
2019-04-20T04:21:07.973Z,12.30
2019-04-20T04:23:44.577Z,13.83
2019-04-20T04:26:17.217Z,12.90
2019-04-20T04:28:43.345Z,11.43
2019-04-20T04:31:15.723Z,15.80
2019-04-20T04:33:55.773Z,16.70
2019-04-20T04:36:10.214Z,19.20
2019-04-20T04:43:39.963Z,12.40
2019-04-20T04:45:49.403Z,12.30
2019-04-20T04:48:22.387Z,9.63
2019-04-20T04:50:52.780Z,11.67
2019-04-20T04:53:28.545Z,11.77
2019-04-20T04:55:50.793Z,9.93
2019-04-20T04:58:12.789Z,9.17
2019-04-20T05:00:40.916Z,8.63
2019-04-20T05:03:44.798Z,11.37
2019-04-20T05:06:35.465Z,8.40
2019-04-20T05:08:51.472Z,10.43
2019-04-20T05:11:15.086Z,14.13
2019-04-20T05:13:52.081Z,9.63
2019-04-20T05:16:33.577Z,10.73
2019-04-20T05:19:05.130Z,10.87
2019-04-20T05:21:57.425Z,11.37
2019-04-20T05:25:01.098Z,8.73
2019-04-20T05:27:46.565Z,9.87
2019-04-20T05:29:55.049Z,13.13
2019-04-20T05:32:32.872Z,10.93
2019-04-20T05:35:16.414Z,10.87
2019-04-20T05:37:48.753Z,12.97
2019-04-20T05:40:10.827Z,12.47
2019-04-20T05:42:48.892Z,10.27
2019-04-20T05:45:11.488Z,11.20
2019-04-20T05:47:43.170Z,12.47
2019-04-20T05:50:09.647Z,12.23
2019-04-20T05:52:50.925Z,11.77
2019-04-20T05:55:14.428Z,11.27
2019-04-20T05:57:42.737Z,14.47
2019-04-20T06:00:14.187Z,10.47
2019-04-20T06:02:37.847Z,11.50
2019-04-20T06:05:20.651Z,13.00
2019-04-20T06:07:35.742Z,11.97
2019-04-20T06:10:18.924Z,10.60
2019-04-20T06:12:37.309Z,13.50
2019-04-20T06:15:15.625Z,12.10
2019-04-20T06:18:08.237Z,13.07
2019-04-20T06:20:46.971Z,11.60
2019-04-20T06:23:38.652Z,12.83
2019-04-20T06:26:12.700Z,15.70
2019-04-20T06:28:25.838Z,13.83
2019-04-20T06:30:52.676Z,13.43
2019-04-20T06:34:19.713Z,16.57
2019-04-20T06:36:43.199Z,17.37
2019-04-20T06:42:14.699Z,15.23
2019-04-20T06:44:56.927Z,13.80
2019-04-20T06:49:53.592Z,13.53
2019-04-20T06:52:27.587Z,13.20
2019-04-20T06:55:15.643Z,12.60
2019-04-20T06:57:45.365Z,15.03
2019-04-20T07:00:15.623Z,13.33
2019-04-20T07:02:48.647Z,16.07
2019-04-20T07:05:28.696Z,14.03
2019-04-20T07:07:43.152Z,13.40
2019-04-20T07:12:39.829Z,12.93
2019-04-20T07:15:01.812Z,15.10
2019-04-20T07:18:02.720Z,15.23
2019-04-20T07:20:56.756Z,14.97
2019-04-20T07:23:23.693Z,15.07
2019-04-20T07:25:52.954Z,12.03
2019-04-20T07:28:19.647Z,13.63
2019-04-20T07:30:45.189Z,12.27
2019-04-20T07:33:17.274Z,14.73
2019-04-20T07:35:42.920Z,15.60
2019-04-20T07:38:23.440Z,13.00
2019-04-20T07:40:35.926Z,12.67
2019-04-20T07:43:02.799Z,10.97
2019-04-20T07:45:32.972Z,11.27
2019-04-20T07:48:13.586Z,13.13
2019-04-20T07:50:29.538Z,13.20
2019-04-20T07:52:54.900Z,12.80
2019-04-20T07:55:36.984Z,14.43
2019-04-20T07:57:55.169Z,14.87
2019-04-20T08:01:15.233Z,11.20
2019-04-20T08:04:02.307Z,14.27
2019-04-20T08:06:37.940Z,11.00
2019-04-20T08:09:13.552Z,14.10
2019-04-20T08:11:52.544Z,12.27
2019-04-20T08:14:20.439Z,12.77
2019-04-20T08:19:10.019Z,12.00
2019-04-20T08:21:44.036Z,11.80
2019-04-20T08:24:07.458Z,12.93
2019-04-20T08:26:28.294Z,13.10
2019-04-20T08:29:20.552Z,11.07
2019-04-20T08:34:41.595Z,9.50
2019-04-20T08:37:08.013Z,13.27
2019-04-20T08:39:58.769Z,10.07
2019-04-20T08:42:07.475Z,11.70
2019-04-20T08:47:33.646Z,10.53
2019-04-20T08:53:03.388Z,8.67
2019-04-20T08:55:09.216Z,8.67
2019-04-20T08:57:20.444Z,12.07
2019-04-20T08:59:49.703Z,11.33
2019-04-20T09:02:18.531Z,10.30
2019-04-20T09:04:52.894Z,9.87
2019-04-20T09:07:20.209Z,11.67
2019-04-20T09:10:12.967Z,11.77
2019-04-20T09:12:26.736Z,14.07
2019-04-20T09:14:41.823Z,11.67
2019-04-20T09:17:37.636Z,9.40
2019-04-20T09:20:06.306Z,10.57
2019-04-20T09:23:02.141Z,10.63
2019-04-20T09:25:48.754Z,10.93
2019-04-20T09:28:11.675Z,10.03
2019-04-20T09:30:42.858Z,14.10
2019-04-20T09:33:44.031Z,11.83
2019-04-20T09:39:02.276Z,13.10
2019-04-20T09:41:47.086Z,11.97
2019-04-20T09:43:56.083Z,12.67
2019-04-20T09:46:24.258Z,12.10
2019-04-20T09:48:57.763Z,11.57
2019-04-20T09:51:40.157Z,12.23
2019-04-20T09:54:02.871Z,12.07
2019-04-20T09:56:35.701Z,10.63
2019-04-20T09:59:08.176Z,11.23
2019-04-20T10:01:30.342Z,10.27
2019-04-20T10:03:47.109Z,10.87
2019-04-20T10:06:17.960Z,11.47
2019-04-20T10:08:50.998Z,9.03
2019-04-20T10:11:14.065Z,10.00
2019-04-20T10:13:41.244Z,11.73
2019-04-20T10:16:08.346Z,11.13
2019-04-20T10:18:42.515Z,9.10
2019-04-20T10:21:05.547Z,9.20
2019-04-20T10:23:32.703Z,9.40
2019-04-20T10:26:00.687Z,8.47
2019-04-20T10:28:29.760Z,9.77
2019-04-20T10:30:58.967Z,11.83
2019-04-20T10:33:27.836Z,9.90
2019-04-20T10:35:57.443Z,11.03
2019-04-20T10:38:44.843Z,10.20
2019-04-20T10:41:20.433Z,10.63
2019-04-20T10:43:40.761Z,9.33
2019-04-20T10:46:08.913Z,9.70
2019-04-20T10:48:40.943Z,9.70
2019-04-20T10:51:08.212Z,9.63
2019-04-20T10:53:34.882Z,8.30
2019-04-20T10:56:03.347Z,8.23
2019-04-20T10:58:31.789Z,8.67
2019-04-20T11:01:01.790Z,9.87
2019-04-20T11:03:29.768Z,10.57
2019-04-20T11:05:58.438Z,8.13
2019-04-20T11:08:26.556Z,7.43
2019-04-20T11:11:08.287Z,8.13
2019-04-20T11:13:23.844Z,7.23
2019-04-20T11:15:50.688Z,8.23
2019-04-20T11:18:17.842Z,11.10
2019-04-20T11:20:45.605Z,11.70
2019-04-20T11:23:14.070Z,10.57
2019-04-20T11:25:42.137Z,9.33
2019-04-20T11:28:10.645Z,7.83
2019-04-20T11:30:38.336Z,8.83
2019-04-20T11:33:06.546Z,9.30
2019-04-20T11:35:37.660Z,9.30
2019-04-20T11:38:02.942Z,8.90
2019-04-20T11:40:31.095Z,8.67
2019-04-20T11:42:57.816Z,10.80
2019-04-20T11:45:24.886Z,7.83
2019-04-20T11:47:51.777Z,7.87
2019-04-20T11:50:19.846Z,9.87
2019-04-20T11:53:28.746Z,8.23
2019-04-20T11:55:58.469Z,7.93
2019-04-20T11:58:26.167Z,7.27
2019-04-20T12:03:38.047Z,9.13
2019-04-20T12:05:59.816Z,8.13
2019-04-20T12:08:27.165Z,9.00
2019-04-20T12:10:58.573Z,11.90
2019-04-20T12:13:24.836Z,8.77
2019-04-20T12:15:53.854Z,8.67
2019-04-20T12:18:23.241Z,10.13
2019-04-20T12:20:50.885Z,10.20
2019-04-20T12:23:18.104Z,9.30
2019-04-20T12:25:46.270Z,9.73
2019-04-20T12:28:15.413Z,12.03
2019-04-20T12:30:43.878Z,9.30
2019-04-20T12:33:13.600Z,8.80
2019-04-20T12:35:42.500Z,8.53
2019-04-20T12:38:10.906Z,8.33
2019-04-20T12:41:31.977Z,9.87
2019-04-20T12:43:48.205Z,9.37
2019-04-20T12:46:18.345Z,8.87
2019-04-20T12:48:44.371Z,11.87
2019-04-20T12:51:11.398Z,12.13
2019-04-20T12:53:40.544Z,8.47
2019-04-20T12:56:08.819Z,8.67
2019-04-20T12:58:36.652Z,9.43
2019-04-20T13:01:04.943Z,8.80
2019-04-20T13:03:32.180Z,11.07
2019-04-20T13:05:59.274Z,8.00
2019-04-20T13:09:08.299Z,10.63
2019-04-20T13:17:50.673Z,8.33
2019-04-20T13:20:16.448Z,10.93
2019-04-20T13:22:44.315Z,8.63
2019-04-20T13:25:12.867Z,8.93
2019-04-20T13:27:40.961Z,10.77
2019-04-20T13:30:09.262Z,7.23
2019-04-20T13:32:36.481Z,9.47
2019-04-20T13:35:04.515Z,8.13
2019-04-20T13:37:36.714Z,8.30
2019-04-20T13:40:03.094Z,7.90
2019-04-20T13:42:33.172Z,7.90
2019-04-20T13:45:01.162Z,8.10
2019-04-20T13:47:28.487Z,8.13
2019-04-20T13:49:56.880Z,8.10
2019-04-20T13:52:44.984Z,7.03
2019-04-20T13:55:54.057Z,7.60
2019-04-20T13:58:41.519Z,8.43
2019-04-20T14:01:28.681Z,7.20
2019-04-20T14:04:16.554Z,9.83
2019-04-20T14:06:45.668Z,8.13
2019-04-20T14:09:15.062Z,7.00
2019-04-20T14:11:43.504Z,8.60
2019-04-20T14:14:10.873Z,10.63
2019-04-20T14:16:39.024Z,12.33
2019-04-20T14:19:07.605Z,8.87
2019-04-20T14:21:34.701Z,7.87
2019-04-20T14:24:04.187Z,7.80
2019-04-20T14:26:30.898Z,7.37
2019-04-20T14:28:58.872Z,9.70
2019-04-20T14:31:27.949Z,6.47
2019-04-20T14:33:57.214Z,9.93
2019-04-20T14:36:26.474Z,8.63
2019-04-20T14:38:54.261Z,7.57
2019-04-20T14:41:22.376Z,7.00
2019-04-20T14:43:51.221Z,10.87
2019-04-20T14:46:19.105Z,9.10
2019-04-20T14:48:46.901Z,7.17
2019-04-20T14:51:14.892Z,10.37
2019-04-20T14:53:43.191Z,7.07
2019-04-20T14:59:25.314Z,7.27
2019-04-20T15:01:56.668Z,7.27
2019-04-20T15:04:26.520Z,7.23
2019-04-20T15:06:54.864Z,8.30
2019-04-20T15:09:22.384Z,9.00
2019-04-20T15:11:50.645Z,8.90
2019-04-20T15:14:18.705Z,7.60
2019-04-20T15:16:48.719Z,7.97
2019-04-20T15:19:36.638Z,8.70
2019-04-20T15:22:05.463Z,7.40
2019-04-20T15:24:33.823Z,11.03
2019-04-20T15:27:02.449Z,7.13
2019-04-20T15:29:30.535Z,8.67
2019-04-20T15:31:59.932Z,7.40
2019-04-20T15:34:28.852Z,9.37
2019-04-20T15:36:58.186Z,9.87
2019-04-20T15:39:27.366Z,6.33
2019-04-20T15:41:55.464Z,7.20
2019-04-20T15:44:22.538Z,8.23
2019-04-20T15:46:50.977Z,9.70
2019-04-20T15:49:19.805Z,7.23
2019-04-20T15:51:47.853Z,7.90
2019-04-20T15:54:15.940Z,6.90
2019-04-20T15:56:53.920Z,7.27
2019-04-20T15:59:12.643Z,5.30
2019-04-20T16:01:59.715Z,7.47
2019-04-20T16:04:47.188Z,5.93
2019-04-20T16:07:17.083Z,6.80
2019-04-20T16:09:45.949Z,6.93
2019-04-20T16:12:15.136Z,6.77
2019-04-20T16:14:43.873Z,6.17
2019-04-20T16:17:12.483Z,7.43
2019-04-20T16:19:51.250Z,6.00
2019-04-20T16:22:10.035Z,10.33
2019-04-20T16:27:36.235Z,5.73
2019-04-20T16:30:05.527Z,7.70
2019-04-20T16:32:34.404Z,7.10
2019-04-20T16:35:02.834Z,7.60
2019-04-20T16:37:32.715Z,7.27
2019-04-20T16:40:01.702Z,5.17
2019-04-20T16:42:29.968Z,6.67
2019-04-20T16:44:59.162Z,7.43
2019-04-20T16:47:28.095Z,4.90
2019-04-20T16:49:57.088Z,4.90
2019-04-20T16:52:25.228Z,4.30
2019-04-20T16:54:53.443Z,7.00
2019-04-20T16:57:21.565Z,5.30
2019-04-20T16:59:52.451Z,5.23
2019-04-20T17:02:19.947Z,4.87
2019-04-20T17:04:47.204Z,4.77
2019-04-20T17:07:35.346Z,5.13
2019-04-20T17:10:04.100Z,4.03
2019-04-20T17:12:31.701Z,3.93
2019-04-20T17:14:58.947Z,4.37
2019-04-20T17:17:27.355Z,7.00
2019-04-20T17:19:55.486Z,4.10
2019-04-20T17:22:23.905Z,4.17
2019-04-20T17:24:51.665Z,4.23
2019-04-20T17:27:39.096Z,4.73
2019-04-20T17:30:49.077Z,4.20
2019-04-20T17:36:16.736Z,4.73
2019-04-20T17:38:43.357Z,6.23
2019-04-20T17:41:23.659Z,4.53
2019-04-20T17:43:56.947Z,5.47
2019-04-20T17:46:56.848Z,5.20
2019-04-20T17:49:30.593Z,4.77
2019-04-20T17:52:05.019Z,4.40
2019-04-20T17:54:33.488Z,4.50
2019-04-20T17:57:02.328Z,4.60
2019-04-20T17:59:30.648Z,3.80
2019-04-20T18:02:30.594Z,7.07
2019-04-20T18:05:29.856Z,6.87
2019-04-20T18:07:52.317Z,5.23
2019-04-20T18:10:23.232Z,5.67
2019-04-20T18:12:42.291Z,6.13
2019-04-20T18:15:22.906Z,4.33
2019-04-20T18:18:13.638Z,4.40
2019-04-20T18:23:16.406Z,6.97
2019-04-20T18:26:06.446Z,6.33
2019-04-20T18:28:31.449Z,4.73
2019-04-20T18:33:29.018Z,6.73
2019-04-20T18:35:54.193Z,6.90
2019-04-20T18:38:21.965Z,5.80
2019-04-20T18:40:55.966Z,8.23
2019-04-20T18:43:22.696Z,7.40
2019-04-20T18:46:10.953Z,5.87
2019-04-20T18:48:40.484Z,5.53
2019-04-20T18:50:48.442Z,4.77
2019-04-20T18:53:23.841Z,6.37
2019-04-20T18:55:51.557Z,4.97
2019-04-20T18:58:13.558Z,4.80
2019-04-20T19:00:44.480Z,7.73
2019-04-20T19:03:18.143Z,8.77
2019-04-20T19:05:38.043Z,8.37
2019-04-20T19:08:10.509Z,6.63
2019-04-20T19:10:38.250Z,8.20
2019-04-20T19:13:09.968Z,8.33
2019-04-20T19:19:04.289Z,7.13
2019-04-20T19:21:19.857Z,8.63
2019-04-20T19:23:56.206Z,8.47
2019-04-20T19:26:21.087Z,11.27
2019-04-20T19:28:52.525Z,9.87
2019-04-20T19:31:30.865Z,11.10
2019-04-20T19:34:03.423Z,10.20
2019-04-20T19:36:24.556Z,12.63
2019-04-20T19:38:52.251Z,9.60
2019-04-20T19:41:25.401Z,9.40
2019-04-20T19:43:48.381Z,11.20
2019-04-20T19:46:39.398Z,10.30
2019-04-20T19:48:48.728Z,11.13
2019-04-20T19:51:29.545Z,9.80
2019-04-20T19:53:57.993Z,8.77
2019-04-20T19:56:16.623Z,8.13
2019-04-20T19:58:45.546Z,9.53
2019-04-20T20:01:03.241Z,9.47
2019-04-20T20:03:30.655Z,10.67
2019-04-20T20:05:59.575Z,11.13
2019-04-20T20:08:29.942Z,9.07
2019-04-20T20:10:59.210Z,9.97
2019-04-20T20:13:32.094Z,10.73
2019-04-20T20:16:02.985Z,9.47
2019-04-20T20:18:35.583Z,8.90
2019-04-20T20:21:10.218Z,9.67
2019-04-20T20:23:21.036Z,8.97
2019-04-20T20:25:49.744Z,11.33
2019-04-20T20:28:29.932Z,9.70
2019-04-20T20:30:56.994Z,7.83
2019-04-20T20:33:36.415Z,7.37
2019-04-20T20:35:52.902Z,5.80
2019-04-20T20:38:19.201Z,7.83
2019-04-20T20:40:56.370Z,9.20
2019-04-20T20:43:22.190Z,5.47
2019-04-20T20:45:48.779Z,7.17
2019-04-20T20:48:26.802Z,5.40
2019-04-20T20:50:55.703Z,5.17
2019-04-20T20:53:14.379Z,4.97
2019-04-20T20:55:42.111Z,5.63
2019-04-20T20:58:11.525Z,5.47
2019-04-20T21:00:45.707Z,5.43
2019-04-20T21:03:06.012Z,5.83
2019-04-20T21:05:31.612Z,5.67
2019-04-20T21:07:59.663Z,5.60
2019-04-20T21:10:34.263Z,6.10
2019-04-20T21:13:01.119Z,5.90
2019-04-20T21:15:27.957Z,5.40
2019-04-20T21:18:16.241Z,5.53
2019-04-20T21:20:45.276Z,4.43
2019-04-20T21:23:09.559Z,5.07
2019-04-20T21:25:47.620Z,6.13
2019-04-20T21:28:10.858Z,6.40
2019-04-20T21:30:43.692Z,5.23
2019-04-20T21:33:09.784Z,5.10
2019-04-20T21:35:52.159Z,6.67
2019-04-20T21:38:21.812Z,6.67
2019-04-20T21:40:50.180Z,7.43
2019-04-20T21:43:20.624Z,9.03
2019-04-20T21:45:52.360Z,8.20
2019-04-20T21:48:34.061Z,9.03
2019-04-20T21:51:03.287Z,11.27
2019-04-20T21:53:20.323Z,10.87
2019-04-20T21:55:43.827Z,9.27
2019-04-20T21:58:13.958Z,8.50
2019-04-20T22:01:13.477Z,7.90
2019-04-20T22:03:30.120Z,6.93
2019-04-20T22:06:18.212Z,7.90
2019-04-20T22:08:51.814Z,7.27
2019-04-20T22:11:15.797Z,5.47
2019-04-20T22:13:47.285Z,8.70
2019-04-20T22:16:14.735Z,5.63
2019-04-20T22:18:51.017Z,5.73
2019-04-20T22:21:21.707Z,4.80
2019-04-20T22:23:57.227Z,7.37
2019-04-20T22:26:21.079Z,5.63
2019-04-20T22:28:40.247Z,6.47
2019-04-20T22:31:08.407Z,5.57
2019-04-20T22:33:41.139Z,5.57
2019-04-20T22:36:09.452Z,5.20
2019-04-20T22:38:59.468Z,4.47
2019-04-20T22:41:27.746Z,5.00
2019-04-20T22:43:54.697Z,5.93
2019-04-20T22:46:28.881Z,5.90
2019-04-20T22:49:14.367Z,5.93
2019-04-20T22:51:37.309Z,7.67
2019-04-20T22:54:10.965Z,7.13
2019-04-20T22:56:35.664Z,6.13
2019-04-20T22:58:59.105Z,5.57
2019-04-20T23:01:29.889Z,4.90
2019-04-20T23:03:46.910Z,7.77
2019-04-20T23:06:14.573Z,4.97
2019-04-20T23:08:47.246Z,7.67
2019-04-20T23:11:17.996Z,5.10
2019-04-20T23:13:43.650Z,5.50
2019-04-20T23:16:09.558Z,7.50
2019-04-20T23:18:36.290Z,6.00
2019-04-20T23:21:07.990Z,4.97
2019-04-20T23:23:33.874Z,5.90
2019-04-20T23:26:03.079Z,5.93
2019-04-20T23:28:31.322Z,5.90
2019-04-20T23:31:06.506Z,5.80
2019-04-20T23:33:29.543Z,6.93
2019-04-20T23:35:59.858Z,6.97
2019-04-20T23:38:26.808Z,6.47
2019-04-20T23:40:55.593Z,5.57
2019-04-20T23:43:30.495Z,7.07
2019-04-20T23:46:22.314Z,8.70
2019-04-20T23:49:06.609Z,6.63
2019-04-20T23:51:54.186Z,7.30
2019-04-20T23:54:11.187Z,7.83
2019-04-20T23:56:32.142Z,8.97
2019-04-20T23:58:59.815Z,8.80
